Time;durP1;ratioP1;P1;durP2;ratioP2;P2;SDS_P1;SDS_P2;PMS_P1;PMS_P2;Temp;Humidity;BMP_temperature;BMP_pressure;BME280_temperature;BME280_humidity;BME280_pressure;Samples;Min_cycle;Max_cycle;Signal;HPM_P1;HPM_P2
2024/04/26 00:01:18;;;;;;;6.38;3.40;;;5.20;56.10;;;0.34;100.00;94491.31;5340526;26;20430;-48
2024/04/26 00:03:44;;;;;;;5.50;3.30;;;5.40;56.20;;;0.39;100.00;94485.41;5342160;26;20107;-48
2024/04/26 00:06:10;;;;;;;5.20;3.53;;;5.40;56.70;;;0.49;100.00;94485.63;5344548;26;20356;-47
2024/04/26 00:08:39;;;;;;;6.82;3.25;;;5.50;56.30;;;0.55;100.00;94481.31;5344884;26;20023;-48
2024/04/26 00:11:05;;;;;;;6.65;3.30;;;5.60;56.40;;;0.61;100.00;94480.38;5345461;26;20256;-52
2024/04/26 00:13:34;;;;;;;4.88;3.08;;;5.60;56.40;;;0.71;100.00;94471.94;5347657;26;20004;-53
2024/04/26 00:16:02;;;;;;;4.90;3.35;;;5.60;56.50;;;0.76;100.00;94458.97;5344778;26;20011;-49
2024/04/26 00:18:31;;;;;;;5.63;3.08;;;5.70;56.40;;;0.79;100.00;94454.06;5337441;26;20012;-50
2024/04/26 00:21:00;;;;;;;6.65;3.20;;;5.80;56.50;;;0.83;100.00;94463.03;5347366;26;20078;-48
2024/04/26 00:23:27;;;;;;;8.02;3.10;;;5.90;56.60;;;0.90;100.00;94465.53;5339564;26;20008;-51
2024/04/26 00:25:52;;;;;;;5.28;3.05;;;5.90;56.50;;;0.96;100.00;94463.81;5352863;26;19999;-47
2024/04/26 00:28:18;;;;;;;4.20;2.92;;;5.90;56.40;;;0.97;100.00;94462.78;5341415;26;20019;-49
2024/04/26 00:30:44;;;;;;;9.30;2.70;;;5.90;56.40;;;0.95;100.00;94462.22;5342980;26;20012;-48
2024/04/26 00:33:10;;;;;;;4.40;2.80;;;5.90;56.40;;;0.90;100.00;94463.69;5343295;26;20013;-50
2024/04/26 00:35:36;;;;;;;5.82;3.40;;;5.90;56.40;;;0.92;100.00;94458.25;5348175;26;22698;-47
2024/04/26 00:38:01;;;;;;;5.85;3.40;;;5.90;56.40;;;0.91;100.00;94460.06;5343852;26;20352;-46
2024/04/26 00:40:27;;;;;;;6.07;3.35;;;5.90;56.40;;;0.92;100.00;94455.63;5350007;26;20008;-48
2024/04/26 00:42:55;;;;;;;5.15;3.28;;;5.90;56.50;;;0.91;100.00;94454.81;5341116;26;20466;-50
2024/04/26 00:45:21;;;;;;;4.57;3.05;;;6.00;56.60;;;0.92;100.00;94453.00;5342793;26;20009;-50
2024/04/26 00:47:47;;;;;;;3.55;2.70;;;6.00;56.70;;;0.93;100.00;94446.72;5348299;26;20027;-49
2024/04/26 00:50:15;;;;;;;5.00;2.88;;;6.00;56.70;;;0.94;100.00;94448.31;5345865;26;20033;-47
2024/04/26 00:52:42;;;;;;;4.07;3.03;;;6.00;56.80;;;0.98;100.00;94448.66;5347406;26;20032;-47
2024/04/26 00:55:10;;;;;;;5.20;3.00;;;6.10;56.90;;;1.00;100.00;94446.56;5341464;26;20358;-47
2024/04/26 00:57:38;;;;;;;4.13;2.70;;;6.10;56.90;;;1.03;100.00;94448.72;5338559;26;20431;-48
2024/04/26 01:00:06;;;;;;;3.53;2.50;;;6.10;56.90;;;1.05;100.00;94441.44;5326244;26;20019;-48
2024/04/26 01:02:33;;;;;;;2.67;2.20;;;6.20;57.20;;;1.09;100.00;94440.72;5340749;26;20375;-49
2024/04/26 01:05:00;;;;;;;4.75;2.60;;;6.20;56.90;;;1.12;100.00;94440.25;5314533;26;20000;-50
2024/04/26 01:07:25;;;;;;;3.92;2.70;;;6.20;56.90;;;1.16;100.00;94438.00;5333029;26;20008;-47
2024/04/26 01:09:51;;;;;;;4.90;3.03;;;6.20;56.90;;;1.20;100.00;94435.69;5343161;26;20014;-48
2024/04/26 01:12:18;;;;;;;4.60;2.30;;;6.20;57.00;;;1.20;100.00;94438.31;5343212;26;20003;-50
2024/04/26 01:14:44;;;;;;;5.53;2.80;;;6.20;57.00;;;1.22;100.00;94434.41;5348619;26;20471;-47
2024/04/26 01:17:10;;;;;;;3.63;2.45;;;6.30;57.10;;;1.24;100.00;94436.81;5345453;26;20015;-48
2024/04/26 01:19:36;;;;;;;3.90;2.33;;;6.30;57.10;;;1.26;100.00;94426.91;5341272;26;20440;-47
2024/04/26 01:22:28;;;;;;;3.97;2.70;;;6.30;57.10;;;1.27;100.00;94421.41;5347424;26;20004;-46
2024/04/26 01:24:54;;;;;;;4.60;2.83;;;6.40;57.30;;;1.29;100.00;94427.22;5333840;26;20008;-48
2024/04/26 01:27:20;;;;;;;3.28;2.50;;;6.40;57.10;;;1.32;100.00;94431.22;5348571;26;20015;-50
2024/04/26 01:29:46;;;;;;;9.25;2.50;;;6.40;57.20;;;1.35;100.00;94430.75;5347193;26;20081;-50
2024/04/26 01:32:12;;;;;;;4.43;2.53;;;6.40;57.20;;;1.38;100.00;94431.06;5344286;26;20019;-47
2024/04/26 01:34:37;;;;;;;4.80;2.70;;;6.50;57.30;;;1.36;100.00;94427.88;5349714;26;20000;-47
2024/04/26 01:37:05;;;;;;;6.68;2.58;;;6.50;57.30;;;1.47;100.00;94422.78;5347328;26;20003;-51
2024/04/26 01:39:31;;;;;;;3.50;2.17;;;6.50;57.40;;;1.52;100.00;94430.75;5350501;26;20544;-48
2024/04/26 01:41:57;;;;;;;3.22;2.20;;;6.60;57.40;;;1.58;100.00;94428.00;5339534;26;19997;-47
2024/04/26 01:44:22;;;;;;;3.67;2.45;;;6.60;57.40;;;1.62;100.00;94426.47;5334493;26;20000;-48
2024/04/26 01:46:48;;;;;;;6.95;2.35;;;6.70;57.40;;;1.67;100.00;94427.63;5337793;26;20041;-47
2024/04/26 01:49:14;;;;;;;3.70;2.17;;;6.70;57.40;;;1.67;100.00;94436.28;5340698;26;20008;-47
2024/04/26 01:51:40;;;;;;;6.25;2.85;;;6.80;57.40;;;1.73;100.00;94422.22;5349142;26;20012;-46
2024/04/26 01:54:06;;;;;;;5.57;2.70;;;6.80;57.40;;;1.78;100.00;94421.50;5337787;26;20039;-48
2024/04/26 01:56:31;;;;;;;3.83;2.95;;;6.80;57.40;;;1.80;100.00;94427.31;5333097;26;20020;-50
2024/04/26 01:58:57;;;;;;;3.97;2.47;;;6.90;57.40;;;1.83;100.00;94418.97;5350477;26;20064;-48
2024/04/26 02:01:23;;;;;;;4.20;2.45;;;6.90;57.50;;;1.85;100.00;94422.16;5336544;26;20008;-50
2024/04/26 02:03:51;;;;;;;3.95;2.10;;;6.90;57.40;;;1.89;100.00;94425.09;5353823;26;20594;-51
2024/04/26 02:06:17;;;;;;;4.32;2.30;;;6.90;57.50;;;1.91;100.00;94415.13;5335056;26;20008;-51
2024/04/26 02:08:43;;;;;;;5.68;2.70;;;6.90;57.50;;;1.90;100.00;94429.31;5346086;26;20428;-52
2024/04/26 02:11:09;;;;;;;4.82;2.20;;;7.00;57.50;;;1.91;100.00;94431.66;5340414;26;20483;-50
2024/04/26 02:13:35;;;;;;;3.65;2.38;;;7.00;57.40;;;1.95;100.00;94429.41;5338439;26;19996;-49
2024/04/26 02:16:01;;;;;;;3.45;2.22;;;7.00;57.40;;;1.97;100.00;94432.56;5369033;21;20429;-51
2024/04/26 02:18:26;;;;;;;3.45;2.20;;;7.00;57.40;;;1.99;100.00;94435.75;5336025;26;20013;-49
2024/04/26 02:20:53;;;;;;;4.47;2.20;;;7.10;57.50;;;1.99;100.00;94433.13;5338970;26;20023;-51
2024/04/26 02:23:18;;;;;;;3.03;2.20;;;7.10;57.50;;;2.03;100.00;94427.13;5337430;26;20474;-53
2024/04/26 02:25:44;;;;;;;3.00;2.42;;;7.10;57.60;;;2.07;100.00;94424.84;5353111;26;20018;-49
2024/04/26 02:28:10;;;;;;;3.70;2.20;;;7.10;57.60;;;2.10;100.00;94421.75;5355282;26;20008;-51
2024/04/26 02:30:36;;;;;;;5.18;2.58;;;7.10;57.60;;;2.08;100.00;94421.19;5371056;26;20524;-52
2024/04/26 02:33:01;;;;;;;3.83;2.40;;;7.20;57.70;;;2.09;100.00;94415.69;5360103;26;20053;-50
2024/04/26 02:35:30;;;;;;;4.63;2.30;;;7.20;57.70;;;2.16;100.00;94420.75;5359556;26;20020;-49
2024/04/26 02:37:56;;;;;;;3.10;1.90;;;7.20;57.70;;;2.12;100.00;94424.13;5356212;26;20019;-50
2024/04/26 02:40:22;;;;;;;2.70;2.20;;;7.20;57.70;;;2.14;100.00;94414.19;5364740;26;20332;-50
2024/04/26 02:42:48;;;;;;;3.83;2.38;;;7.20;57.60;;;2.18;100.00;94415.28;5360245;26;20008;-48
2024/04/26 02:45:14;;;;;;;3.92;1.92;;;7.20;57.60;;;2.20;100.00;94421.09;5356182;26;20008;-51
2024/04/26 02:47:39;;;;;;;4.03;2.70;;;7.20;57.60;;;2.19;100.00;94424.75;5340335;26;20016;-49
2024/04/26 02:50:05;;;;;;;4.25;2.30;;;7.20;57.70;;;2.16;100.00;94422.59;5360829;26;20047;-48
2024/04/26 02:52:31;;;;;;;2.70;1.92;;;7.30;57.60;;;2.16;100.00;94420.75;5372604;26;20044;-48
2024/04/26 02:54:57;;;;;;;3.92;2.28;;;7.20;57.60;;;2.11;100.00;94419.91;5357624;26;20011;-48
2024/04/26 02:57:23;;;;;;;3.15;2.38;;;7.20;57.60;;;2.09;100.00;94410.44;5370861;26;20003;-51
2024/04/26 02:59:48;;;;;;;3.70;2.42;;;7.10;57.50;;;2.05;100.00;94417.19;5365583;26;20008;-50
2024/04/26 03:02:19;;;;;;;3.13;2.00;;;7.10;57.60;;;1.98;100.00;94427.09;5368565;26;20375;-50
2024/04/26 03:04:45;;;;;;;3.13;2.38;;;7.10;57.60;;;1.95;100.00;94435.44;5359893;26;20027;-48
2024/04/26 03:07:13;;;;;;;4.32;2.25;;;7.00;57.60;;;1.85;100.00;94420.31;5357462;26;20026;-50
2024/04/26 03:09:40;;;;;;;3.58;2.60;;;7.00;57.70;;;1.82;100.00;94427.88;5371778;26;20022;-49
2024/04/26 03:12:06;;;;;;;3.00;2.20;;;6.90;57.70;;;1.70;100.00;94429.78;5370030;26;20008;-50
2024/04/26 03:14:32;;;;;;;3.13;2.42;;;6.90;57.70;;;1.72;100.00;94433.72;5372108;26;20043;-51
2024/04/26 03:16:58;;;;;;;2.83;2.13;;;6.80;57.80;;;1.63;100.00;94427.28;5371466;26;20019;-53
2024/04/26 03:19:25;;;;;;;3.17;2.30;;;6.80;57.80;;;1.64;100.00;94439.38;5370492;26;20596;-49
2024/04/26 03:21:51;;;;;;;3.30;2.05;;;6.80;57.90;;;1.65;100.00;94434.91;5371055;26;20000;-51
2024/04/26 03:24:17;;;;;;;3.30;1.85;;;6.80;57.90;;;1.66;100.00;94428.63;5354931;26;20613;-54
2024/04/26 03:26:44;;;;;;;4.95;2.25;;;6.80;58.00;;;1.63;100.00;94435.19;5371604;26;20004;-54
2024/04/26 03:29:11;;;;;;;4.47;2.55;;;6.80;58.00;;;1.55;100.00;94436.34;5371794;26;20012;-48
2024/04/26 03:31:37;;;;;;;4.18;2.50;;;6.80;58.10;;;1.59;100.00;94436.66;5370562;26;20000;-48
2024/04/26 03:34:02;;;;;;;3.45;2.30;;;6.80;58.20;;;1.61;100.00;94439.84;5371843;26;20081;-51
2024/04/26 03:36:28;;;;;;;4.55;2.33;;;6.70;58.20;;;1.59;100.00;94440.06;5367665;26;20089;-49
2024/04/26 03:38:54;;;;;;;3.15;2.10;;;6.70;58.20;;;1.65;100.00;94440.97;5354951;26;20027;-48
2024/04/26 03:41:21;;;;;;;3.97;2.25;;;6.80;58.30;;;1.63;100.00;94443.06;5366983;26;20081;-51
2024/04/26 03:43:47;;;;;;;4.68;2.40;;;6.80;58.30;;;1.66;100.00;94442.56;5354495;26;20013;-51
2024/04/26 03:46:13;;;;;;;2.80;2.10;;;6.80;58.30;;;1.66;100.00;94434.69;5365596;26;20003;-49
2024/04/26 03:48:38;;;;;;;3.20;2.40;;;6.80;58.30;;;1.65;100.00;94427.03;5361966;26;21413;-54
2024/04/26 03:51:05;;;;;;;3.95;1.90;;;6.80;58.40;;;1.67;100.00;94419.75;5368448;26;20401;-52
2024/04/26 03:53:30;;;;;;;2.35;1.80;;;6.80;58.40;;;1.73;100.00;94410.91;5357729;26;20022;-49
2024/04/26 03:55:56;;;;;;;3.22;2.15;;;6.80;58.40;;;1.73;100.00;94410.91;5339851;26;20008;-48
2024/04/26 03:58:22;;;;;;;3.90;2.13;;;6.80;58.40;;;1.80;100.00;94406.31;5369391;26;20018;-49
2024/04/26 04:00:48;;;;;;;2.53;2.13;;;6.80;58.50;;;1.92;100.00;94414.91;5370159;26;20084;-54
2024/04/26 04:03:13;;;;;;;2.92;2.20;;;6.90;58.60;;;1.97;100.00;94403.66;5370989;26;20045;-51
2024/04/26 04:05:39;;;;;;;3.83;2.08;;;6.90;58.60;;;2.02;100.00;94415.06;5357003;26;20008;-50
2024/04/26 04:08:07;;;;;;;3.33;2.10;;;6.90;58.60;;;2.02;100.00;94412.44;5366670;26;20003;-50
2024/04/26 04:10:33;;;;;;;3.92;2.25;;;7.00;58.60;;;2.01;100.00;94410.84;5360664;26;20014;-48
2024/04/26 04:12:59;;;;;;;4.45;2.45;;;7.00;58.60;;;1.99;100.00;94401.59;5369247;26;20020;-48
2024/04/26 04:15:25;;;;;;;4.57;2.35;;;7.00;58.60;;;1.98;100.00;94387.69;5370678;26;20019;-51
2024/04/26 04:17:50;;;;;;;2.75;2.30;;;7.00;58.70;;;1.99;100.00;94381.38;5369479;26;20493;-49
2024/04/26 04:20:16;;;;;;;3.67;2.50;;;7.00;58.80;;;2.04;100.00;94376.22;5370736;26;20018;-51
2024/04/26 04:22:42;;;;;;;3.28;2.03;;;7.00;58.70;;;2.11;100.00;94377.88;5342905;26;20008;-49
2024/04/26 04:25:08;;;;;;;3.75;1.90;;;7.10;58.70;;;2.08;100.00;94390.44;5335381;26;20026;-51
2024/04/26 04:27:34;;;;;;;4.72;2.47;;;7.10;58.60;;;2.11;100.00;94399.69;5368061;26;20019;-50
2024/04/26 04:30:00;;;;;;;3.90;2.55;;;7.10;58.60;;;2.14;100.00;94409.72;5364213;26;20023;-51
2024/04/26 04:32:26;;;;;;;4.25;2.00;;;7.10;58.60;;;2.13;100.00;94410.78;5339189;26;20009;-49
2024/04/26 04:34:51;;;;;;;3.20;2.00;;;7.20;58.60;;;2.15;100.00;94407.88;5335472;26;20020;-55
2024/04/26 04:37:17;;;;;;;4.57;1.85;;;7.20;58.60;;;2.18;100.00;94410.81;5338815;26;20005;-49
2024/04/26 04:39:43;;;;;;;3.40;2.15;;;7.20;58.60;;;2.20;100.00;94415.84;5348401;26;20015;-50
2024/04/26 04:42:09;;;;;;;2.28;1.90;;;7.20;58.50;;;2.18;100.00;94416.06;5368573;26;20032;-53
2024/04/26 04:44:34;;;;;;;5.35;1.83;;;7.30;58.50;;;2.21;100.00;94422.69;5355539;26;20015;-51
2024/04/26 04:47:00;;;;;;;2.78;2.00;;;7.30;58.40;;;2.23;100.00;94418.78;5365407;26;20004;-50
2024/04/26 04:49:27;;;;;;;3.20;2.33;;;7.40;58.40;;;2.29;100.00;94422.31;5366927;26;20011;-48
2024/04/26 04:51:53;;;;;;;2.75;1.95;;;7.40;58.40;;;2.34;100.00;94417.09;5370068;26;20030;-50
2024/04/26 04:54:19;;;;;;;2.17;1.95;;;7.40;58.40;;;2.37;100.00;94418.44;5361247;26;20004;-48
2024/04/26 04:56:45;;;;;;;3.10;2.05;;;7.50;58.50;;;2.42;100.00;94423.78;5335391;26;20016;-50
2024/04/26 04:59:10;;;;;;;3.58;2.55;;;7.50;58.40;;;2.46;100.00;94423.06;5335463;26;20004;-50
2024/04/26 05:01:36;;;;;;;4.38;2.95;;;7.60;58.40;;;2.48;100.00;94418.34;5366534;26;20869;-48
2024/04/26 05:04:02;;;;;;;3.75;2.75;;;7.70;58.50;;;2.52;100.00;94429.19;5373460;26;20085;-49
2024/04/26 05:06:28;;;;;;;7.40;2.95;;;7.70;58.50;;;2.56;100.00;94427.66;5370715;26;20008;-54
2024/04/26 05:08:54;;;;;;;5.47;3.22;;;7.70;58.40;;;2.62;100.00;94425.91;5371756;26;20018;-49
2024/04/26 05:11:20;;;;;;;4.93;2.95;;;7.80;58.40;;;2.68;100.00;94427.56;5368965;26;20008;-51
2024/04/26 05:13:46;;;;;;;3.50;2.92;;;7.90;58.40;;;2.73;100.00;94432.88;5342956;26;20013;-52
2024/04/26 05:16:11;;;;;;;4.85;2.85;;;7.90;58.40;;;2.75;100.00;94428.97;5369832;26;20020;-53
2024/04/26 05:18:37;;;;;;;3.83;2.88;;;8.00;58.30;;;2.82;100.00;94430.63;5358372;26;20082;-51
2024/04/26 05:21:03;;;;;;;5.05;3.10;;;8.10;58.30;;;2.88;100.00;94437.53;5370368;26;20007;-50
2024/04/26 05:23:29;;;;;;;6.40;3.58;;;8.20;58.40;;;2.93;100.00;94437.59;5368721;26;20003;-53
2024/04/26 05:25:55;;;;;;;6.57;4.20;;;8.20;58.30;;;2.98;100.00;94443.72;5338126;26;20023;-56
2024/04/26 05:28:21;;;;;;;10.77;4.43;;;8.30;58.30;;;3.06;100.00;94449.59;5338690;26;20023;-50
2024/04/26 05:30:47;;;;;;;7.22;4.40;;;8.40;58.80;;;3.09;100.00;94442.00;5364840;26;20470;-55
2024/04/26 05:33:12;;;;;;;7.35;4.43;;;8.50;58.20;;;3.25;100.00;94448.25;5370901;26;20707;-53
2024/04/26 05:35:38;;;;;;;9.27;5.32;;;8.60;58.10;;;3.38;100.00;94444.44;5370300;26;20003;-54
2024/04/26 05:38:04;;;;;;;12.75;6.40;;;8.70;58.00;;;3.50;100.00;94449.56;5338097;26;20475;-50
2024/04/26 05:40:30;;;;;;;15.73;6.90;;;8.90;57.90;;;3.61;99.11;94451.28;5338579;26;20013;-52
2024/04/26 05:42:56;;;;;;;10.50;6.32;;;9.10;57.70;;;3.83;97.88;94453.84;5352832;26;20022;-53
2024/04/26 05:45:22;;;;;;;10.52;6.60;;;9.30;57.40;;;4.10;96.32;94461.72;5337791;26;20016;-49
2024/04/26 05:47:47;;;;;;;13.07;5.65;;;9.60;57.20;;;4.34;94.97;94464.81;5358576;26;20040;-49
2024/04/26 05:50:13;;;;;;;8.38;5.45;;;9.90;57.00;;;4.54;92.11;94459.66;5348446;26;20015;-51
2024/04/26 05:52:39;;;;;;;7.38;4.95;;;10.10;56.70;;;4.75;90.20;94460.59;5356806;26;20428;-56
2024/04/26 05:55:05;;;;;;;11.60;6.45;;;10.30;56.40;;;4.94;89.87;94455.69;5352394;26;20112;-54
2024/04/26 05:57:31;;;;;;;12.57;6.35;;;10.50;56.10;;;5.07;89.07;94457.88;5354431;26;20008;-53
2024/04/26 05:59:58;;;;;;;13.55;7.50;;;10.70;55.90;;;5.21;88.06;94463.50;5365404;26;20022;-50
2024/04/26 06:02:26;;;;;;;12.65;6.97;;;10.80;55.60;;;5.33;87.05;94461.44;5360001;26;20027;-50
2024/04/26 06:05:00;;;;;;;12.98;6.80;;;10.90;55.40;;;5.41;85.50;94465.41;5337845;26;20019;-52
2024/04/26 06:07:28;;;;;;;10.93;6.45;;;11.10;55.20;;;5.48;84.76;94476.50;5370727;26;20008;-51
2024/04/26 06:09:54;;;;;;;10.73;5.35;;;11.20;54.80;;;5.54;84.75;94479.97;5372713;26;20008;-54
2024/04/26 06:12:19;;;;;;;6.15;3.92;;;11.40;54.50;;;5.73;84.79;94485.56;5340028;26;20448;-50
2024/04/26 06:14:46;;;;;;;7.93;3.67;;;11.60;54.30;;;6.00;83.56;94480.91;5371757;26;20003;-49
2024/04/26 06:17:12;;;;;;;7.60;4.22;;;11.90;54.10;;;6.26;82.34;94487.00;5371813;26;20027;-51
2024/04/26 06:19:38;;;;;;;6.55;4.13;;;12.20;53.80;;;6.52;79.46;94492.34;5370863;26;20587;-49
2024/04/26 06:22:04;;;;;;;6.93;4.07;;;12.50;53.60;;;6.72;79.79;94494.16;5372427;26;20471;-51
2024/04/26 06:24:30;;;;;;;6.43;4.03;;;12.70;53.30;;;6.85;74.16;94506.84;5349568;26;20081;-51
2024/04/26 06:26:56;;;;;;;5.15;3.67;;;12.80;52.90;;;6.87;75.18;94496.78;5350860;26;20019;-49
2024/04/26 06:29:21;;;;;;;5.13;3.45;;;12.80;52.40;;;6.92;74.62;94498.63;5355425;26;20016;-49
2024/04/26 06:31:48;;;;;;;8.38;3.05;;;12.80;52.30;;;6.91;72.92;94500.47;5341481;26;20012;-49
2024/04/26 06:34:14;;;;;;;8.38;4.00;;;12.80;51.90;;;6.97;72.25;94498.63;5366593;26;20019;-50
2024/04/26 06:36:40;;;;;;;8.70;2.90;;;12.70;51.70;;;6.97;72.29;94506.56;5369059;26;20063;-50
2024/04/26 06:39:06;;;;;;;4.65;2.90;;;12.80;52.10;;;7.01;73.76;94515.56;5353929;26;20738;-52
2024/04/26 06:41:31;;;;;;;4.35;2.45;;;12.80;51.30;;;6.97;73.95;94519.00;5360537;26;20003;-51
2024/04/26 06:43:57;;;;;;;4.78;2.50;;;12.90;51.10;;;6.88;73.54;94522.19;5356092;26;20015;-49
2024/04/26 06:46:23;;;;;;;4.43;2.55;;;13.00;50.90;;;6.94;73.96;94523.00;5370052;26;20036;-54
2024/04/26 06:48:49;;;;;;;7.72;2.60;;;13.10;50.70;;;7.08;73.87;94520.56;5356384;26;20008;-48
2024/04/26 06:51:15;;;;;;;6.70;3.00;;;13.20;50.60;;;7.27;74.31;94532.19;5371952;26;20031;-48
2024/04/26 06:53:40;;;;;;;4.45;2.60;;;13.40;50.50;;;7.38;73.11;94528.44;5371049;26;20016;-49
2024/04/26 06:56:06;;;;;;;4.82;2.70;;;13.60;50.30;;;7.54;72.73;94523.88;5338514;26;20055;-47
2024/04/26 06:58:32;;;;;;;4.00;2.60;;;13.80;50.10;;;7.79;72.18;94520.34;5370441;26;20012;-49
2024/04/26 07:00:58;;;;;;;5.63;2.95;;;14.00;49.90;;;7.99;70.64;94516.81;5355977;26;20003;-48
2024/04/26 07:03:24;;;;;;;5.07;2.58;;;14.30;49.70;;;8.21;69.52;94520.91;5370483;26;20019;-49
2024/04/26 07:05:50;;;;;;;5.43;2.92;;;14.60;49.50;;;8.51;67.52;94526.03;5363489;26;20007;-47
2024/04/26 07:08:16;;;;;;;3.35;2.88;;;14.90;48.90;;;8.93;65.32;94527.31;5371936;26;20003;-48
2024/04/26 07:10:44;;;;;;;3.50;2.95;;;15.30;48.50;;;9.26;64.41;94524.88;5372278;26;20466;-48
2024/04/26 07:13:10;;;;;;;4.55;2.80;;;15.70;48.00;;;9.62;63.24;94525.28;5346205;26;20012;-49
2024/04/26 07:15:36;;;;;;;4.28;3.13;;;16.10;47.60;;;9.96;61.11;94526.97;5361479;26;20377;-47
2024/04/26 07:18:05;;;;;;;7.80;2.80;;;16.50;47.00;;;10.34;58.82;94525.19;5369572;26;20049;-47
2024/04/26 07:20:31;;;;;;;4.40;2.50;;;16.90;46.40;;;10.52;57.85;94531.56;5363259;26;20465;-48
2024/04/26 07:22:57;;;;;;;5.03;2.47;;;17.20;45.90;;;10.76;57.32;94536.00;5371539;26;20015;-50
2024/04/26 07:25:23;;;;;;;6.25;2.90;;;17.60;45.20;;;11.03;57.49;94535.28;5345099;26;20008;-54
2024/04/26 07:27:49;;;;;;;4.30;2.50;;;17.80;44.70;;;11.09;54.33;94529.59;5336800;26;20013;-51
2024/04/26 07:30:15;;;;;;;2.47;2.00;;;18.00;44.00;;;11.04;52.05;94536.88;5360855;26;20019;-49
2024/04/26 07:32:41;;;;;;;2.83;2.03;;;18.30;43.40;;;11.41;53.14;94530.66;5361430;26;20080;-53
2024/04/26 07:35:08;;;;;;;3.10;2.05;;;18.60;42.90;;;11.59;50.35;94539.63;5370759;26;20069;-52
2024/04/26 07:37:34;;;;;;;2.63;1.95;;;18.90;42.20;;;11.76;50.27;94539.06;5370149;26;20004;-52
2024/04/26 07:40:00;;;;;;;3.50;2.13;;;19.30;41.60;;;12.03;48.60;94536.41;5355179;26;20475;-53
2024/04/26 07:42:26;;;;;;;3.45;2.05;;;19.60;40.90;;;12.18;48.06;94535.28;5347580;26;20011;-50
2024/04/26 07:44:53;;;;;;;2.15;1.70;;;19.80;40.10;;;12.46;46.61;94532.53;5340226;26;20004;-56
2024/04/26 07:47:22;;;;;;;2.85;1.90;;;20.10;39.50;;;12.72;45.49;94530.06;5353613;26;20022;-55
2024/04/26 07:49:49;;;;;;;6.15;2.15;;;20.30;38.80;;;12.84;45.22;94537.53;5370437;26;20084;-51
2024/04/26 07:52:16;;;;;;;6.25;2.25;;;20.60;38.20;;;12.99;45.83;94539.06;5371329;26;20548;-52
2024/04/26 07:54:42;;;;;;;3.03;2.00;;;20.80;37.70;;;13.18;45.65;94532.41;5357006;26;20004;-51
2024/04/26 07:57:09;;;;;;;2.30;1.98;;;20.80;37.30;;;13.36;45.11;94528.00;5335705;26;20126;-52
2024/04/26 07:59:36;;;;;;;2.55;2.03;;;20.70;36.90;;;13.44;45.52;94518.41;5336756;26;20020;-52
2024/04/26 08:02:02;;;;;;;2.53;1.90;;;20.70;36.90;;;13.54;44.20;94526.19;5364325;26;20117;-53
2024/04/26 08:04:28;;;;;;;5.10;2.38;;;20.70;36.70;;;13.41;44.13;94517.19;5371433;26;20473;-54
2024/04/26 08:06:54;;;;;;;2.42;1.90;;;20.70;36.30;;;13.53;43.94;94527.28;5368826;26;20034;-55
2024/04/26 08:09:20;;;;;;;2.70;2.08;;;20.70;36.00;;;13.41;44.55;94525.19;5371048;26;20011;-54
2024/04/26 08:11:47;;;;;;;3.17;1.83;;;20.70;35.80;;;13.55;45.93;94522.41;5369457;26;20012;-51
2024/04/26 08:14:14;;;;;;;3.17;1.83;;;20.70;35.70;;;13.72;44.97;94515.53;5370910;26;20008;-50
2024/04/26 08:16:39;;;;;;;2.85;2.20;;;21.00;35.50;;;14.09;45.14;94517.69;5350639;21;20017;-56
2024/04/26 08:19:05;;;;;;;4.43;2.63;;;21.40;35.40;;;14.46;45.31;94526.25;5296713;27;20426;-54
2024/04/26 08:21:31;;;;;;;4.15;2.30;;;21.90;35.10;;;14.57;43.26;94519.53;5300874;27;20096;-57
2024/04/26 08:23:59;;;;;;;4.20;2.30;;;22.30;34.50;;;14.66;44.48;94527.53;5301167;26;20379;-55
2024/04/26 08:26:24;;;;;;;2.53;2.08;;;22.60;33.90;;;14.61;43.53;94522.38;5298993;27;20084;-54
2024/04/26 08:28:51;;;;;;;4.80;3.03;;;22.90;33.50;;;15.08;44.71;94530.53;5296831;27;20005;-54
2024/04/26 08:31:19;;;;;;;3.92;2.47;;;23.20;33.10;;;15.55;42.08;94524.41;5290334;26;20475;-57
2024/04/26 08:33:44;;;;;;;3.47;2.13;;;23.60;32.80;;;15.70;41.40;94521.25;5287901;27;19997;-56
2024/04/26 08:36:10;;;;;;;3.85;2.42;;;23.90;32.40;;;15.79;42.34;94530.03;5294610;27;20020;-57
2024/04/26 08:38:36;;;;;;;2.83;2.30;;;23.90;32.00;;;16.07;41.88;94529.56;5280093;26;20001;-57
2024/04/26 08:41:03;;;;;;;2.78;2.30;;;24.00;31.90;;;16.31;42.52;94531.66;5290438;26;20009;-56
2024/04/26 08:43:31;;;;;;;3.95;2.42;;;24.10;31.70;;;16.37;41.27;94531.13;5286776;26;20001;-56
2024/04/26 08:45:57;;;;;;;3.03;2.30;;;24.20;31.50;;;16.71;40.46;94536.59;5290357;27;20005;-55
2024/04/26 08:48:26;;;;;;;2.38;2.17;;;24.50;31.30;;;16.94;39.74;94535.16;5291135;27;20020;-57
2024/04/26 08:50:55;;;;;;;4.63;3.03;;;24.80;30.70;;;17.00;39.30;94528.47;5292084;27;20016;-56
2024/04/26 08:53:24;;;;;;;2.70;2.50;;;25.10;30.30;;;17.07;39.95;94536.00;5295590;27;20626;-55
2024/04/26 08:55:50;;;;;;;3.80;2.45;;;25.40;30.00;;;17.18;39.23;94537.16;5289187;27;20002;-54
2024/04/26 08:58:17;;;;;;;4.05;2.40;;;25.80;29.70;;;17.48;39.21;94531.63;5296076;27;20024;-52
2024/04/26 09:00:44;;;;;;;4.10;2.63;;;26.10;29.30;;;17.77;38.27;94542.28;5286401;27;20010;-57
2024/04/26 09:03:11;;;;;;;2.30;2.10;;;26.10;29.10;;;17.99;38.24;94549.13;5297739;27;20016;-56
2024/04/26 09:05:40;;;;;;;5.40;2.40;;;26.40;29.10;;;18.13;36.75;94543.41;5290168;27;20487;-55
2024/04/26 09:08:06;;;;;;;3.63;2.40;;;26.70;28.60;;;18.30;37.50;94544.28;5293861;27;20005;-55
2024/04/26 09:10:35;;;;;;;3.65;2.17;;;26.90;28.50;;;18.20;37.89;94545.53;5288814;27;20005;-54
2024/04/26 09:13:02;;;;;;;3.42;2.10;;;27.00;28.20;;;18.35;37.70;94539.47;5295793;27;20016;-56
2024/04/26 09:15:27;;;;;;;3.58;2.50;;;27.10;28.00;;;18.34;36.79;94537.13;5296065;27;20009;-56
2024/04/26 09:17:53;;;;;;;3.30;2.20;;;27.00;27.90;;;18.35;37.87;94535.97;5284952;27;20020;-55
2024/04/26 09:20:19;;;;;;;3.22;2.53;;;27.00;28.00;;;18.22;37.31;94537.91;5297833;27;20006;-56
2024/04/26 09:22:45;;;;;;;3.95;2.40;;;27.00;27.80;;;18.29;36.82;94535.41;5288176;27;20021;-52
2024/04/26 09:25:11;;;;;;;4.28;2.60;;;27.00;27.60;;;18.62;36.43;94537.97;5285545;27;20001;-50
2024/04/26 09:27:37;;;;;;;5.25;2.40;;;27.00;27.40;;;18.85;36.32;94532.09;5287327;27;20417;-54
2024/04/26 09:30:04;;;;;;;3.40;2.20;;;26.90;27.40;;;18.98;36.21;94540.91;5289045;27;20571;-55
2024/04/26 09:32:31;;;;;;;3.00;2.28;;;26.90;27.40;;;18.35;36.91;94541.38;5292409;27;20005;-56
2024/04/26 09:34:58;;;;;;;3.85;2.47;;;27.00;27.40;;;17.99;38.99;94543.75;5282516;27;20010;-56
2024/04/26 09:37:24;;;;;;;3.45;1.98;;;26.90;26.80;;;17.92;38.47;94543.50;5287059;27;20013;-53
2024/04/26 09:39:51;;;;;;;3.15;2.40;;;26.80;27.20;;;18.21;38.10;94536.34;5289206;26;19998;-50
2024/04/26 09:42:22;;;;;;;3.35;2.58;;;26.80;27.00;;;18.43;36.86;94537.78;5284018;27;20511;-50
2024/04/26 09:44:54;;;;;;;6.13;2.65;;;26.90;27.10;;;18.47;37.66;94538.66;5294727;27;20017;-56
2024/04/26 09:47:25;;;;;;;2.67;2.47;;;26.90;27.30;;;18.53;38.14;94539.22;5288026;27;20005;-49
2024/04/26 09:49:53;;;;;;;2.80;2.42;;;26.80;27.40;;;18.87;37.68;94543.31;5292779;27;20029;-51
2024/04/26 09:52:21;;;;;;;4.10;2.78;;;26.90;27.30;;;19.04;37.50;94547.66;5286237;27;20546;-53
2024/04/26 09:54:47;;;;;;;4.95;2.80;;;27.10;27.30;;;18.86;37.79;94545.22;5287222;27;20006;-52
2024/04/26 09:57:14;;;;;;;3.15;2.80;;;27.40;27.30;;;18.54;38.04;94543.47;5295524;27;20531;-56
2024/04/26 09:59:42;;;;;;;3.47;2.90;;;27.60;27.10;;;18.04;39.06;94540.81;5289250;26;20024;-54
2024/04/26 10:02:18;;;;;;;4.63;2.58;;;27.40;26.90;;;17.73;39.42;94527.06;5298007;27;20445;-54
2024/04/26 10:04:44;;;;;;;3.90;2.67;;;27.30;26.80;;;17.62;39.95;94534.81;5296514;27;20017;-55
2024/04/26 10:07:24;;;;;;;2.67;2.47;;;26.90;26.90;;;17.34;39.23;94545.41;5291899;26;20421;-56
2024/04/26 10:09:56;;;;;;;2.83;2.50;;;26.70;26.90;;;17.13;40.47;94542.75;5283368;27;20005;-57
2024/04/26 10:12:30;;;;;;;4.10;2.50;;;26.40;27.10;;;17.01;40.88;94538.09;5300255;27;20015;-55
2024/04/26 10:15:10;;;;;;;3.75;2.22;;;26.10;27.20;;;17.15;41.27;94543.22;5293658;27;20005;-57
2024/04/26 10:17:50;;;;;;;3.22;1.92;;;26.00;27.50;;;17.49;39.28;94539.38;5289576;27;20019;-52
2024/04/26 10:20:20;;;;;;;2.45;1.80;;;26.20;27.40;;;18.02;38.23;94540.38;5293127;27;20025;-54